createdAt,value
2019-01-11T00:00:29.328Z,99.90
2019-01-11T00:03:02.848Z,99.90
2019-01-11T00:05:36.001Z,99.90
2019-01-11T00:08:10.858Z,99.90
2019-01-11T00:10:43.978Z,99.90
2019-01-11T00:13:17.354Z,99.90
2019-01-11T00:15:50.594Z,99.90
2019-01-11T00:18:23.729Z,99.90
2019-01-11T00:20:56.837Z,99.90
2019-01-11T00:23:30.196Z,99.90
2019-01-11T00:26:03.444Z,99.90
2019-01-11T00:28:36.561Z,99.90
2019-01-11T00:31:09.739Z,99.90
2019-01-11T00:33:42.727Z,99.90
2019-01-11T00:36:15.911Z,99.90
2019-01-11T00:38:48.903Z,99.90
2019-01-11T00:41:22.091Z,99.90
2019-01-11T00:43:55.219Z,99.90
2019-01-11T00:46:28.398Z,99.90
2019-01-11T00:49:01.409Z,99.90
2019-01-11T00:51:34.780Z,99.90
2019-01-11T00:54:08.358Z,99.90
2019-01-11T00:56:41.320Z,99.90
2019-01-11T00:59:14.518Z,99.90
2019-01-11T01:01:50.649Z,99.90
2019-01-11T01:04:26.465Z,99.90
2019-01-11T01:06:59.552Z,99.90
2019-01-11T01:09:32.625Z,99.90
2019-01-11T01:12:06.637Z,99.90
2019-01-11T01:14:39.877Z,99.90
2019-01-11T01:17:13.001Z,99.90
2019-01-11T01:19:46.175Z,99.90
2019-01-11T01:22:19.288Z,99.90
2019-01-11T01:24:52.264Z,99.90
2019-01-11T01:27:25.458Z,99.90
2019-01-11T01:29:58.495Z,99.90
2019-01-11T01:32:31.611Z,99.90
2019-01-11T01:35:04.705Z,99.90
2019-01-11T01:37:37.814Z,99.90
2019-01-11T01:40:12.209Z,99.90
2019-01-11T01:42:45.255Z,99.90
2019-01-11T01:45:18.940Z,99.90
2019-01-11T01:47:51.941Z,99.90
2019-01-11T01:50:25.318Z,99.90
2019-01-11T01:52:58.398Z,99.90
2019-01-11T01:55:31.501Z,99.90
2019-01-11T01:58:04.544Z,99.90
2019-01-11T02:00:38.003Z,99.90
2019-01-11T02:03:09.765Z,99.90
2019-01-11T02:05:42.672Z,99.90
2019-01-11T02:08:15.987Z,99.90
2019-01-11T02:10:49.120Z,99.90
2019-01-11T02:13:22.558Z,99.90
2019-01-11T02:15:55.869Z,99.90
2019-01-11T02:18:28.944Z,99.90
2019-01-11T02:21:02.060Z,99.90
2019-01-11T02:23:35.062Z,99.90
2019-01-11T02:26:08.138Z,99.90
2019-01-11T02:28:40.949Z,99.90
2019-01-11T02:31:14.007Z,99.90
2019-01-11T02:33:47.091Z,99.90
2019-01-11T02:36:20.011Z,99.90
2019-01-11T02:38:53.144Z,99.90
2019-01-11T02:41:26.042Z,99.90
2019-01-11T02:43:58.868Z,99.90
2019-01-11T02:46:31.791Z,99.90
2019-01-11T02:49:04.729Z,99.90
2019-01-11T02:51:38.063Z,99.90
2019-01-11T02:54:10.903Z,99.90
2019-01-11T02:56:45.985Z,99.90
2019-01-11T02:59:25.508Z,99.90
2019-01-11T03:01:58.361Z,99.90
2019-01-11T03:04:31.144Z,99.90
2019-01-11T03:07:04.078Z,99.90
2019-01-11T03:09:37.050Z,99.90
2019-01-11T03:12:10.020Z,99.90
2019-01-11T03:14:43.258Z,99.90
2019-01-11T03:17:16.380Z,99.90
2019-01-11T03:19:49.195Z,99.90
2019-01-11T03:22:22.216Z,99.90
2019-01-11T03:24:55.106Z,99.90
2019-01-11T03:27:27.929Z,99.90
2019-01-11T03:30:00.840Z,99.90
2019-01-11T03:32:33.803Z,99.90
2019-01-11T03:35:14.723Z,99.90
2019-01-11T03:37:49.020Z,99.90
2019-01-11T03:40:23.888Z,99.90
2019-01-11T03:42:57.233Z,99.90
2019-01-11T03:45:30.271Z,99.90
2019-01-11T03:48:03.077Z,99.90
2019-01-11T03:50:36.013Z,99.90
2019-01-11T03:53:08.847Z,99.90
2019-01-11T03:55:41.733Z,99.90
2019-01-11T03:58:14.670Z,99.90
2019-01-11T04:00:47.773Z,99.90
2019-01-11T04:03:20.746Z,99.90
2019-01-11T04:05:53.753Z,99.90
2019-01-11T04:08:26.513Z,99.90
2019-01-11T04:10:59.745Z,99.90
2019-01-11T04:13:32.856Z,99.90
2019-01-11T04:16:05.766Z,99.90
2019-01-11T04:18:45.967Z,99.90
2019-01-11T04:21:18.824Z,99.90
2019-01-11T04:23:51.647Z,99.90
2019-01-11T04:26:24.479Z,99.90
2019-01-11T04:28:57.299Z,99.90
2019-01-11T04:31:30.618Z,99.90
2019-01-11T04:34:03.503Z,99.90
2019-01-11T04:36:36.252Z,99.90
2019-01-11T04:39:10.850Z,99.90
2019-01-11T04:41:43.717Z,99.90
2019-01-11T04:44:16.575Z,99.90
2019-01-11T04:46:49.468Z,99.90
2019-01-11T04:49:22.217Z,99.90
2019-01-11T04:51:55.126Z,99.90
2019-01-11T04:54:28.213Z,99.90
2019-01-11T04:57:01.007Z,99.90
2019-01-11T04:59:33.908Z,99.90
2019-01-11T05:02:06.808Z,99.90
2019-01-11T05:04:39.756Z,99.90
2019-01-11T05:07:12.809Z,99.90
2019-01-11T05:09:45.741Z,99.90
2019-01-11T05:12:18.759Z,99.90
2019-01-11T05:14:52.450Z,99.90
2019-01-11T05:17:25.416Z,99.90
2019-01-11T05:19:58.268Z,99.90
2019-01-11T05:22:31.210Z,99.90
2019-01-11T05:25:04.122Z,99.90
2019-01-11T05:27:37.145Z,99.90
2019-01-11T05:30:13.203Z,99.90
2019-01-11T05:32:46.094Z,99.90
2019-01-11T05:35:19.203Z,99.90
2019-01-11T05:37:52.004Z,99.90
2019-01-11T05:40:24.859Z,99.90
2019-01-11T05:42:57.669Z,99.90
2019-01-11T05:45:30.439Z,99.90
2019-01-11T05:48:03.352Z,99.90
2019-01-11T05:50:36.308Z,99.90
2019-01-11T05:53:09.171Z,99.90
2019-01-11T05:55:49.462Z,99.90
2019-01-11T05:58:38.851Z,99.90
2019-01-11T06:01:11.976Z,99.90
2019-01-11T06:03:44.923Z,99.90
2019-01-11T06:06:18.406Z,99.90
2019-01-11T06:08:51.957Z,99.90
2019-01-11T06:11:25.568Z,99.90
2019-01-11T06:13:59.471Z,99.90
2019-01-11T06:16:33.202Z,99.90
2019-01-11T06:19:06.666Z,99.90
2019-01-11T06:21:40.336Z,99.90
2019-01-11T06:24:13.814Z,99.90
2019-01-11T06:26:46.778Z,99.90
2019-01-11T06:29:19.782Z,99.90
2019-01-11T06:31:52.746Z,99.90
2019-01-11T06:34:25.629Z,99.90
2019-01-11T06:36:58.765Z,99.90
2019-01-11T06:39:31.694Z,99.90
2019-01-11T06:42:16.998Z,99.90
2019-01-11T06:44:49.995Z,99.90
2019-01-11T06:47:22.991Z,99.90
2019-01-11T06:49:55.911Z,99.90
2019-01-11T06:52:29.018Z,99.90
2019-01-11T06:55:01.883Z,99.90
2019-01-11T06:57:34.783Z,99.90
2019-01-11T07:00:10.229Z,99.90
2019-01-11T07:02:43.099Z,99.90
2019-01-11T07:05:16.149Z,99.90
2019-01-11T07:07:48.984Z,99.90
2019-01-11T07:10:23.028Z,99.90
2019-01-11T07:12:55.815Z,99.90
2019-01-11T07:15:29.184Z,99.90
2019-01-11T07:18:02.571Z,99.90
2019-01-11T07:20:35.559Z,99.90
2019-01-11T07:23:09.437Z,99.90
2019-01-11T07:25:42.431Z,99.90
2019-01-11T07:28:15.204Z,99.90
2019-01-11T07:31:05.028Z,99.90
2019-01-11T07:33:38.000Z,99.90
2019-01-11T07:36:27.771Z,99.90
2019-01-11T07:39:00.667Z,99.90
2019-01-11T07:41:33.736Z,99.90
2019-01-11T07:44:06.619Z,99.90
2019-01-11T07:46:40.615Z,99.90
2019-01-11T07:49:13.407Z,99.90
2019-01-11T07:51:46.381Z,99.90
2019-01-11T07:54:19.299Z,99.90
2019-01-11T07:56:53.845Z,99.90
2019-01-11T07:59:27.202Z,99.90
2019-01-11T08:02:00.348Z,99.90
2019-01-11T08:04:33.344Z,99.90
2019-01-11T08:07:06.500Z,99.90
2019-01-11T08:12:13.673Z,99.90
2019-01-11T08:14:47.146Z,99.90
2019-01-11T08:17:20.741Z,99.90
2019-01-11T08:19:54.120Z,99.90
2019-01-11T08:22:42.055Z,99.90
2019-01-11T08:25:16.702Z,99.90
2019-01-11T08:27:50.259Z,99.90
2019-01-11T08:30:23.714Z,99.90
2019-01-11T08:32:57.298Z,99.90
2019-01-11T08:35:30.909Z,99.90
2019-01-11T08:38:04.596Z,99.90
2019-01-11T08:40:38.134Z,99.90
2019-01-11T08:43:11.704Z,99.90
2019-01-11T08:45:45.269Z,99.90
2019-01-11T08:48:18.877Z,99.90
2019-01-11T08:50:52.653Z,99.90
2019-01-11T08:53:26.283Z,99.90
2019-01-11T08:55:59.742Z,99.90
2019-01-11T08:58:33.283Z,99.90
2019-01-11T09:01:06.658Z,99.90
2019-01-11T09:03:40.117Z,99.90
2019-01-11T09:06:14.288Z,99.90
2019-01-11T09:08:48.208Z,99.90
2019-01-11T09:11:21.972Z,99.90
2019-01-11T09:13:55.640Z,99.90
2019-01-11T09:16:29.167Z,99.90
2019-01-11T09:19:05.026Z,99.90
2019-01-11T09:21:41.546Z,99.90
2019-01-11T09:24:13.285Z,99.90
2019-01-11T09:26:47.003Z,99.90
2019-01-11T09:29:20.427Z,99.90
2019-01-11T09:31:54.033Z,99.90
2019-01-11T09:34:27.503Z,99.90
2019-01-11T09:37:01.139Z,99.90
2019-01-11T09:39:34.691Z,99.90
2019-01-11T09:42:08.247Z,99.90
2019-01-11T09:44:41.832Z,99.90
2019-01-11T09:47:15.395Z,99.90
2019-01-11T09:49:48.883Z,99.90
2019-01-11T09:52:22.557Z,99.90
2019-01-11T09:54:56.050Z,99.90
2019-01-11T09:57:29.603Z,99.90
2019-01-11T10:00:03.066Z,99.90
2019-01-11T10:02:44.621Z,99.90
2019-01-11T10:05:18.036Z,99.90
2019-01-11T10:07:51.573Z,99.90
2019-01-11T10:10:25.743Z,99.90
2019-01-11T10:12:59.699Z,99.90
2019-01-11T10:15:33.375Z,99.90
2019-01-11T10:18:09.410Z,99.90
2019-01-11T10:20:42.988Z,99.90
2019-01-11T10:23:16.441Z,99.90
2019-01-11T10:25:49.899Z,99.90
2019-01-11T10:28:23.476Z,99.90
2019-01-11T10:31:00.679Z,99.90
2019-01-11T10:33:36.177Z,99.90
2019-01-11T10:36:07.097Z,99.90
2019-01-11T10:38:40.563Z,99.90
2019-01-11T10:41:14.005Z,99.90
2019-01-11T10:43:47.542Z,99.90
2019-01-11T10:46:36.249Z,99.90
2019-01-11T10:49:09.742Z,99.90
2019-01-11T10:51:43.285Z,99.90
2019-01-11T10:54:26.165Z,99.90
2019-01-11T10:56:59.894Z,99.90
2019-01-11T10:59:33.503Z,99.90
2019-01-11T11:02:07.245Z,99.90
2019-01-11T11:04:40.784Z,99.90
2019-01-11T11:07:14.409Z,99.90
2019-01-11T11:09:47.887Z,99.90
2019-01-11T11:12:21.807Z,99.90
2019-01-11T11:14:55.578Z,99.90
2019-01-11T11:17:29.150Z,99.90
2019-01-11T11:20:02.635Z,99.90
2019-01-11T11:22:37.117Z,99.90
2019-01-11T11:25:12.686Z,99.90
2019-01-11T11:27:46.241Z,99.90
2019-01-11T11:30:20.496Z,99.90
2019-01-11T11:33:03.754Z,99.90
2019-01-11T11:35:37.315Z,99.90
2019-01-11T11:38:10.869Z,99.90
2019-01-11T11:40:44.347Z,99.90
2019-01-11T11:43:17.886Z,99.90
2019-01-11T11:45:51.362Z,99.90
2019-01-11T11:48:24.908Z,99.90
2019-01-11T11:50:58.479Z,99.90
2019-01-11T11:53:32.262Z,99.90
2019-01-11T11:56:05.748Z,99.90
2019-01-11T11:58:39.259Z,99.90
2019-01-11T12:01:16.199Z,99.90
2019-01-11T12:03:49.809Z,99.90
2019-01-11T12:06:23.319Z,99.90
2019-01-11T12:08:58.170Z,99.90
2019-01-11T12:11:31.856Z,99.90
2019-01-11T12:14:05.684Z,99.90
2019-01-11T12:16:39.893Z,99.90
2019-01-11T12:19:13.612Z,99.90
2019-01-11T12:21:47.870Z,99.90
2019-01-11T12:24:21.743Z,99.90
2019-01-11T12:26:56.308Z,99.90
2019-01-11T12:29:32.121Z,99.90
2019-01-11T12:32:08.441Z,99.90
2019-01-11T12:34:41.175Z,99.90
2019-01-11T12:37:14.682Z,99.90
2019-01-11T12:39:48.443Z,99.90
2019-01-11T12:42:25.279Z,99.90
2019-01-11T12:44:59.287Z,99.90
2019-01-11T12:47:32.823Z,99.90
2019-01-11T12:50:07.049Z,99.90
2019-01-11T12:52:45.359Z,99.90
2019-01-11T12:55:19.466Z,99.90
2019-01-11T12:57:53.030Z,99.90
2019-01-11T13:00:26.485Z,99.90
2019-01-11T13:03:00.102Z,99.90
2019-01-11T13:05:33.802Z,99.90
2019-01-11T13:08:07.391Z,99.90
2019-01-11T13:10:40.952Z,99.90
2019-01-11T13:13:14.538Z,99.90
2019-01-11T13:15:48.643Z,99.90
2019-01-11T13:18:22.669Z,99.90
2019-01-11T13:21:00.857Z,99.90
2019-01-11T13:23:35.423Z,99.90
2019-01-11T13:26:09.106Z,99.90
2019-01-11T13:32:25.293Z,99.90
2019-01-11T13:34:58.830Z,99.90
2019-01-11T13:37:32.267Z,99.90
2019-01-11T13:40:05.857Z,99.90
2019-01-11T13:42:39.360Z,99.90
2019-01-11T13:45:12.925Z,99.90
2019-01-11T13:47:46.486Z,99.90
2019-01-11T13:50:42.369Z,99.90
2019-01-11T13:53:17.587Z,99.90
2019-01-11T13:55:51.062Z,99.90
2019-01-11T13:58:24.547Z,99.90
2019-01-11T14:00:58.659Z,99.90
2019-01-11T14:03:32.101Z,99.90
2019-01-11T14:06:08.369Z,99.90
2019-01-11T14:08:42.899Z,99.90
2019-01-11T14:11:16.510Z,99.90
2019-01-11T14:13:49.963Z,99.90
2019-01-11T14:16:24.835Z,99.90
2019-01-11T14:18:58.290Z,99.90
2019-01-11T14:21:31.830Z,99.90
2019-01-11T14:24:05.711Z,99.90
2019-01-11T14:26:39.276Z,99.90
2019-01-11T14:29:12.719Z,99.90
2019-01-11T14:31:46.541Z,99.90
2019-01-11T14:34:20.178Z,99.90
2019-01-11T14:36:53.603Z,99.90
2019-01-11T14:39:27.027Z,99.90
2019-01-11T14:42:00.791Z,99.90
2019-01-11T14:44:35.341Z,99.90
2019-01-11T14:47:09.279Z,99.90
2019-01-11T14:49:43.388Z,99.90
2019-01-11T14:52:20.264Z,99.90
2019-01-11T14:54:51.971Z,99.90
2019-01-11T14:57:25.495Z,99.90
2019-01-11T14:59:59.089Z,99.90
2019-01-11T15:02:32.507Z,99.90
2019-01-11T15:05:07.015Z,99.90
2019-01-11T15:07:41.751Z,99.90
2019-01-11T15:10:17.296Z,99.90
2019-01-11T15:12:51.632Z,99.90
2019-01-11T15:15:26.230Z,99.90
2019-01-11T15:17:59.660Z,99.90
2019-01-11T15:20:33.096Z,99.90
2019-01-11T15:23:06.702Z,99.90
2019-01-11T15:25:40.128Z,99.90
2019-01-11T15:28:13.595Z,99.90
2019-01-11T15:30:48.439Z,99.90
2019-01-11T15:33:22.470Z,99.90
2019-01-11T15:35:56.110Z,99.90
2019-01-11T15:38:31.913Z,99.90
2019-01-11T15:41:05.313Z,99.90
2019-01-11T15:43:39.490Z,99.90
2019-01-11T15:46:15.139Z,99.90
2019-01-11T15:48:56.625Z,99.90
2019-01-11T15:51:32.311Z,99.90
2019-01-11T15:54:06.883Z,99.90
2019-01-11T15:56:40.352Z,99.90
2019-01-11T15:59:13.798Z,99.90
2019-01-11T16:01:47.303Z,99.90
2019-01-11T16:04:20.783Z,99.90
2019-01-11T16:06:54.612Z,99.90
2019-01-11T16:10:08.157Z,99.90
2019-01-11T16:12:56.462Z,99.90
2019-01-11T16:15:44.117Z,99.90
2019-01-11T16:18:24.713Z,99.90
2019-01-11T16:20:59.228Z,99.90
2019-01-11T16:23:32.822Z,99.90
2019-01-11T16:26:06.556Z,99.90
2019-01-11T16:28:40.311Z,99.90
2019-01-11T16:31:13.881Z,99.90
2019-01-11T16:33:47.331Z,97.70
2019-01-11T16:36:21.108Z,97.00
2019-01-11T16:38:54.933Z,96.30
2019-01-11T16:41:28.358Z,96.70
2019-01-11T16:44:01.929Z,97.80
2019-01-11T16:46:35.410Z,98.20
2019-01-11T16:49:08.993Z,96.20
2019-01-11T16:51:42.640Z,97.00
2019-01-11T16:54:16.079Z,95.60
2019-01-11T16:56:49.638Z,95.30
2019-01-11T16:59:23.115Z,94.80
2019-01-11T17:01:56.823Z,94.70
2019-01-11T17:04:32.111Z,92.50
2019-01-11T17:07:05.615Z,93.70
2019-01-11T17:09:44.812Z,92.00
2019-01-11T17:12:18.467Z,92.50
2019-01-11T17:14:52.020Z,91.90
2019-01-11T17:17:26.310Z,91.10
2019-01-11T17:20:06.773Z,87.70
2019-01-11T17:22:52.719Z,90.70
2019-01-11T17:25:23.340Z,90.00
2019-01-11T17:27:57.137Z,86.90
2019-01-11T17:30:37.995Z,84.50
2019-01-11T17:33:11.808Z,85.50
2019-01-11T17:35:46.842Z,85.60
2019-01-11T17:38:35.055Z,86.40
2019-01-11T17:41:11.079Z,87.60
2019-01-11T17:43:50.645Z,87.50
2019-01-11T17:46:25.992Z,88.00
2019-01-11T17:48:59.582Z,88.30
2019-01-11T17:51:33.791Z,83.70
2019-01-11T17:54:07.476Z,85.60
2019-01-11T17:56:41.096Z,84.70
2019-01-11T17:59:15.424Z,86.00
2019-01-11T18:01:51.322Z,87.00
2019-01-11T18:04:28.701Z,87.00
2019-01-11T18:07:02.263Z,86.00
2019-01-11T18:09:42.872Z,85.90
2019-01-11T18:12:20.038Z,85.30
2019-01-11T18:14:53.911Z,86.00
2019-01-11T18:17:31.620Z,82.70
2019-01-11T18:20:07.239Z,84.50
2019-01-11T18:22:40.768Z,85.60
2019-01-11T18:25:22.089Z,83.20
2019-01-11T18:27:55.204Z,80.20
2019-01-11T18:30:28.762Z,82.20
2019-01-11T18:33:02.258Z,80.90
2019-01-11T18:35:36.159Z,81.30
2019-01-11T18:38:09.988Z,81.40
2019-01-11T18:40:43.811Z,81.70
2019-01-11T18:43:20.014Z,83.30
2019-01-11T18:45:53.531Z,80.80
2019-01-11T18:48:27.313Z,81.80
2019-01-11T18:51:01.773Z,79.90
2019-01-11T18:53:35.240Z,79.00
2019-01-11T18:56:09.215Z,77.20
2019-01-11T18:58:42.743Z,74.80
2019-01-11T19:01:16.389Z,77.20
2019-01-11T19:03:49.939Z,76.80
2019-01-11T19:06:23.432Z,76.20
2019-01-11T19:08:57.558Z,76.20
2019-01-11T19:11:31.034Z,76.00
2019-01-11T19:14:04.572Z,75.40
2019-01-11T19:16:38.026Z,74.50
2019-01-11T19:19:11.537Z,73.20
2019-01-11T19:21:46.014Z,71.40
2019-01-11T19:24:31.468Z,72.00
2019-01-11T19:27:15.383Z,71.60
2019-01-11T19:30:07.466Z,73.20
2019-01-11T19:32:43.911Z,74.80
2019-01-11T19:35:18.539Z,73.90
2019-01-11T19:38:08.726Z,74.00
2019-01-11T19:40:42.168Z,75.10
2019-01-11T19:43:15.798Z,74.60
2019-01-11T19:45:49.352Z,75.60
2019-01-11T19:48:22.980Z,76.60
2019-01-11T19:50:56.478Z,76.70
2019-01-11T19:53:30.040Z,75.70
2019-01-11T19:56:03.625Z,75.00
2019-01-11T19:58:37.135Z,74.30
2019-01-11T20:01:10.670Z,76.80
2019-01-11T20:03:45.484Z,75.10
2019-01-11T20:06:22.074Z,74.00
2019-01-11T20:09:02.618Z,71.80
2019-01-11T20:11:36.620Z,74.50
2019-01-11T20:14:18.632Z,75.70
2019-01-11T20:17:01.174Z,76.70
2019-01-11T20:19:42.591Z,76.10
2019-01-11T20:22:16.385Z,74.10
2019-01-11T20:24:50.137Z,73.80
2019-01-11T20:27:38.563Z,75.60
2019-01-11T20:30:14.123Z,77.60
2019-01-11T20:32:47.680Z,79.80
2019-01-11T20:35:21.444Z,80.80
2019-01-11T20:37:55.424Z,80.60
2019-01-11T20:40:29.097Z,82.80
2019-01-11T20:43:02.677Z,82.70
2019-01-11T20:45:36.215Z,83.10
2019-01-11T20:48:09.797Z,79.70
2019-01-11T20:50:43.380Z,78.40
2019-01-11T20:53:17.186Z,77.20
2019-01-11T20:55:50.939Z,78.30
2019-01-11T21:00:57.297Z,82.00
2019-01-11T21:03:30.915Z,83.10
2019-01-11T21:06:04.815Z,81.70
2019-01-11T21:08:40.447Z,80.60
2019-01-11T21:11:14.043Z,79.90
2019-01-11T21:13:46.932Z,79.20
2019-01-11T21:16:23.896Z,80.70
2019-01-11T21:18:57.093Z,78.90
2019-01-11T21:21:30.183Z,78.40
2019-01-11T21:24:03.048Z,78.90
2019-01-11T21:26:36.066Z,80.70
2019-01-11T21:29:09.255Z,80.90
2019-01-11T21:31:42.051Z,81.00
2019-01-11T21:34:16.591Z,81.80
2019-01-11T21:36:55.821Z,81.80
2019-01-11T21:39:28.877Z,82.00
2019-01-11T21:45:01.515Z,84.60
2019-01-11T21:47:46.860Z,85.50
2019-01-11T21:50:29.185Z,86.60
2019-01-11T21:53:03.980Z,88.70
2019-01-11T21:55:41.653Z,90.10
2019-01-11T21:58:14.980Z,90.80
2019-01-11T22:01:01.017Z,90.70
2019-01-11T22:03:35.549Z,91.30
2019-01-11T22:06:12.220Z,92.00
2019-01-11T22:08:46.274Z,92.70
2019-01-11T22:11:20.508Z,93.20
2019-01-11T22:13:53.537Z,93.80
2019-01-11T22:16:43.458Z,93.70
2019-01-11T22:19:49.313Z,94.00
2019-01-11T22:22:24.555Z,94.50
2019-01-11T22:25:26.806Z,95.40
2019-01-11T22:28:04.785Z,96.20
2019-01-11T22:30:38.215Z,97.60
2019-01-11T22:33:25.378Z,98.30
2019-01-11T22:37:00.256Z,99.20
2019-01-11T22:40:04.883Z,99.30
2019-01-11T22:42:58.526Z,99.50
2019-01-11T22:45:32.401Z,99.90
2019-01-11T22:48:34.378Z,99.90
2019-01-11T22:58:18.379Z,99.90
2019-01-11T23:08:52.461Z,99.90
2019-01-11T23:12:22.584Z,99.90
2019-01-11T23:15:39.121Z,99.90
2019-01-11T23:19:15.853Z,99.90
2019-01-11T23:21:58.253Z,99.90
2019-01-11T23:28:20.074Z,99.90
2019-01-11T23:35:02.199Z,99.90
2019-01-11T23:45:41.799Z,99.90
2019-01-11T23:48:18.138Z,99.90
2019-01-11T23:51:27.346Z,99.90
2019-01-11T23:58:12.789Z,99.90
